Gresham, WI (54128)

9:05 PM CDT on April 25, 2017 (GMT -0500)
Willow Wood | | Change Station

Elev 810 ft 44.79 °N, 88.58 °W | Updated 4 minutes ago

Overcast
Overcast
63.9 °F
Feels Like 63.9 °F
N
2.5
Wind Variable Wind from West
Gusts 5.6 mph

Today
High -- | Low -- °F
--% Chance of Precip.
Yesterday
High -- | Low -- °F
Precip. -- in
Pressure 29.61 in
Visibility 10.0 miles
Clouds Overcast 10000 ft
Dew Point 50 °F
Humidity 60%
Rainfall 0.00 in
Snow Depth Not available.
5:53 AM 7:53 PM
Waning Crescent, 0% visible
METAR KEZS 260155Z AUTO 15005KT 10SM OVC100 18/10 A2961 RMK AO2 T01800097
Pressure 29.61 in
Visibility 10.0 miles
Clouds Overcast 10000 ft
Dew Point 50 °F
Humidity 60%
Rainfall 0.00 in
Snow Depth Not available.
5:53 AM 7:53 PM
Waning Crescent, 0% visible
METAR KEZS 260155Z AUTO 15005KT 10SM OVC100 18/10 A2961 RMK AO2 T01800097

Get Severe Weather Alerts

Thanks for signing up!

Be on the lookout for a verification email in your inbox.

You'll start receiving the daily forecast at 8 AM.

×

10-Day Weather Forecast

Almanac

Astronomy

Apr. 25, 2017 Rise Set
Actual Time
Civil Twilight
Nautical Twilight
Astronomical Twilight
Moon
Length of Visible Light
Length of Day
Tomorrow will be .
, % of the Moon is Illuminated

Today's Extremes

State Highs State Lows

Community

WunderPhotos

WunderBlog® & News

Nearby

Air Quality

  Air Quality AQ Index Pollutant
Not available.

Snow Depth

Station Depth Elevation

Earthquake Activity

City Distance Mag. Time & Date
Minimum magnitude displayed is 2.5.

Coastal Water Temperatures

Place Temperature

Stations

Nearby Weather Stations

Station Location Temp. Windchill Dew Point Humidity Wind Precip. Elev Updated Type
                   

Watches & Warnings

There are currently no watches in effect.